createdAt,value
2019-05-15T00:01:48.916Z,62594.68
2019-05-15T00:04:15.400Z,62606.36
2019-05-15T00:06:41.627Z,62608.74
2019-05-15T00:09:08.156Z,62608.00
2019-05-15T00:11:34.525Z,62606.51
2019-05-15T00:14:00.768Z,62606.51
2019-05-15T00:16:29.017Z,62612.55
2019-05-15T00:18:55.149Z,62607.73
2019-05-15T00:21:21.400Z,62618.67
2019-05-15T00:23:49.546Z,62626.28
2019-05-15T00:26:18.096Z,62625.86
2019-05-15T00:28:43.933Z,62632.80
2019-05-15T00:31:10.171Z,62631.16
2019-05-15T00:33:36.405Z,62630.96
2019-05-15T00:36:02.664Z,62634.96
2019-05-15T00:38:28.887Z,62636.80
2019-05-15T00:40:55.132Z,62634.34
2019-05-15T00:43:21.366Z,62634.02
2019-05-15T00:45:48.905Z,62638.84
2019-05-15T00:48:15.429Z,62633.67
2019-05-15T00:50:41.675Z,62633.25
2019-05-15T00:53:08.710Z,62636.38
2019-05-15T00:55:35.166Z,62638.02
2019-05-15T00:58:01.404Z,62640.41
2019-05-15T01:00:42.397Z,62639.32
2019-05-15T01:03:08.987Z,62634.34
2019-05-15T01:05:35.346Z,62634.54
2019-05-15T01:08:01.597Z,62633.47
2019-05-15T01:10:28.690Z,62633.60
2019-05-15T01:12:55.059Z,62642.45
2019-05-15T01:15:21.301Z,62644.74
2019-05-15T01:17:49.220Z,62646.38
2019-05-15T01:20:15.692Z,62646.18
2019-05-15T01:22:41.932Z,62648.89
2019-05-15T01:25:08.891Z,62649.97
2019-05-15T01:27:35.229Z,62659.50
2019-05-15T01:30:01.851Z,62655.62
2019-05-15T01:32:28.515Z,62654.67
2019-05-15T01:34:54.831Z,62655.62
2019-05-15T01:37:21.068Z,62655.42
2019-05-15T01:39:48.560Z,62655.62
2019-05-15T01:42:15.014Z,62658.13
2019-05-15T01:44:41.247Z,62658.26
2019-05-15T01:47:08.485Z,62661.61
2019-05-15T01:49:34.917Z,62661.81
2019-05-15T01:52:01.143Z,62653.71
2019-05-15T01:54:28.875Z,62651.41
2019-05-15T01:56:55.324Z,62649.97
2019-05-15T01:59:21.557Z,62644.74
2019-05-15T02:01:48.493Z,62642.03
2019-05-15T02:04:15.041Z,62637.82
2019-05-15T02:06:41.262Z,62635.51
2019-05-15T02:09:08.321Z,62626.41
2019-05-15T02:11:34.839Z,62620.21
2019-05-15T02:14:01.079Z,62613.02
2019-05-15T02:16:28.610Z,62606.51
2019-05-15T02:18:55.171Z,62603.25
2019-05-15T02:21:21.394Z,62592.38
2019-05-15T02:23:48.160Z,62597.41
2019-05-15T02:26:14.604Z,62601.28
2019-05-15T02:28:40.856Z,62601.28
2019-05-15T02:31:10.343Z,62596.31
2019-05-15T02:33:35.219Z,62598.22
2019-05-15T02:36:01.455Z,62602.35
2019-05-15T02:38:29.526Z,62598.70
2019-05-15T02:40:59.031Z,62599.99
2019-05-15T02:43:23.983Z,62603.45
2019-05-15T02:45:51.078Z,62608.34
2019-05-15T02:48:20.002Z,62611.80
2019-05-15T02:50:45.717Z,62609.77
2019-05-15T02:53:11.946Z,62607.38
2019-05-15T02:55:40.338Z,62612.82
2019-05-15T02:58:09.643Z,62619.00
2019-05-15T03:00:44.175Z,62625.19
2019-05-15T03:03:02.636Z,62625.31
2019-05-15T03:05:29.484Z,62631.90
2019-05-15T03:07:59.335Z,62630.21
2019-05-15T03:10:24.165Z,62630.83
2019-05-15T03:12:50.382Z,62636.26
2019-05-15T03:15:19.395Z,62640.87
2019-05-15T03:17:45.149Z,62656.29
2019-05-15T03:20:11.689Z,62673.36
2019-05-15T03:22:40.119Z,62688.59
2019-05-15T03:25:10.582Z,62701.09
2019-05-15T03:27:35.293Z,62715.65
2019-05-15T03:30:01.981Z,62725.57
2019-05-15T03:32:42.175Z,62735.16
2019-05-15T03:35:03.492Z,62748.98
2019-05-15T03:37:24.508Z,62765.17
2019-05-15T03:39:51.668Z,62774.34
2019-05-15T03:42:19.330Z,62787.20
2019-05-15T03:44:45.549Z,62801.22
2019-05-15T03:47:11.879Z,62812.98
2019-05-15T03:49:39.732Z,62829.96
2019-05-15T03:52:09.769Z,62839.68
2019-05-15T03:54:34.410Z,62850.03
2019-05-15T03:57:00.677Z,62875.16
2019-05-15T03:59:29.446Z,62898.53
2019-05-15T04:01:55.136Z,62938.93
2019-05-15T04:04:21.385Z,62983.31
2019-05-15T04:06:49.854Z,63030.36
2019-05-15T04:09:18.734Z,63075.79
2019-05-15T04:11:43.909Z,63130.84
2019-05-15T04:14:10.388Z,63184.26
2019-05-15T04:16:39.091Z,63232.70
2019-05-15T04:19:04.944Z,63235.30
2019-05-15T04:21:31.176Z,63318.25
2019-05-15T04:26:28.803Z,63408.49
2019-05-15T04:28:55.579Z,63433.49
2019-05-15T04:31:21.820Z,63474.13
2019-05-15T04:33:49.163Z,63506.35
2019-05-15T04:36:18.903Z,63537.60
2019-05-15T04:38:43.783Z,63569.86
2019-05-15T04:41:12.034Z,63614.43
2019-05-15T04:43:41.327Z,63670.29
2019-05-15T04:46:09.525Z,63699.09
2019-05-15T04:48:34.607Z,63744.89
2019-05-15T04:51:01.222Z,63781.41
2019-05-15T04:53:29.631Z,63809.23
2019-05-15T04:55:55.629Z,63844.83
2019-05-15T04:58:21.882Z,63855.41
2019-05-15T05:00:52.369Z,63872.02
2019-05-15T05:03:20.121Z,63923.54
2019-05-15T05:05:49.915Z,63969.67
2019-05-15T05:08:15.713Z,63988.39
2019-05-15T05:10:42.153Z,64048.76
2019-05-15T05:13:08.884Z,64037.85
2019-05-15T05:15:44.940Z,64005.67
2019-05-15T05:18:11.353Z,64043.16
2019-05-15T05:20:38.231Z,64093.61
2019-05-15T05:23:04.566Z,64092.85
2019-05-15T05:25:30.875Z,64128.25
2019-05-15T05:27:58.037Z,64191.90
2019-05-15T05:30:24.476Z,64186.39
2019-05-15T05:32:50.712Z,64233.50
2019-05-15T05:35:18.559Z,64220.71
2019-05-15T05:37:44.901Z,64232.41
2019-05-15T05:40:11.462Z,64169.07
2019-05-15T05:42:38.884Z,64128.91
2019-05-15T05:45:09.300Z,64150.97
2019-05-15T05:47:35.108Z,64173.03
2019-05-15T05:50:01.356Z,64151.40
2019-05-15T05:52:28.114Z,64135.42
2019-05-15T05:54:54.679Z,64175.70
2019-05-15T05:57:21.640Z,64181.10
2019-05-15T05:59:48.980Z,64147.21
2019-05-15T06:02:15.540Z,64134.41
2019-05-15T06:04:41.770Z,64126.14
2019-05-15T06:07:13.230Z,64098.48
2019-05-15T06:09:38.056Z,64060.55
2019-05-15T06:12:04.514Z,64047.12
2019-05-15T06:14:30.759Z,64094.07
2019-05-15T06:16:58.889Z,64126.27
2019-05-15T06:19:27.646Z,64216.30
2019-05-15T06:21:58.203Z,64227.23
2019-05-15T06:24:23.006Z,64235.94
2019-05-15T06:26:49.309Z,64281.42
2019-05-15T06:29:17.758Z,64300.33
2019-05-15T06:31:43.717Z,64321.86
2019-05-15T06:34:09.954Z,64368.05
2019-05-15T06:36:36.210Z,64394.34
2019-05-15T06:39:04.606Z,64373.24
2019-05-15T06:41:33.897Z,64340.54
2019-05-15T06:43:59.829Z,64352.02
2019-05-15T06:46:28.173Z,64327.72
2019-05-15T06:48:54.290Z,64387.93
2019-05-15T06:51:20.540Z,64436.93
2019-05-15T06:53:48.906Z,64436.93
2019-05-15T06:56:14.948Z,64341.97
2019-05-15T06:58:41.215Z,64351.14
2019-05-15T07:01:08.801Z,64412.94
2019-05-15T07:03:35.410Z,64412.94
2019-05-15T07:06:01.658Z,64338.21
2019-05-15T07:08:28.831Z,64427.21
2019-05-15T07:10:55.201Z,64427.21
2019-05-15T07:13:22.862Z,64524.21
2019-05-15T07:15:49.870Z,64517.58
2019-05-15T07:18:16.277Z,64480.05
2019-05-15T07:20:42.543Z,64539.26
2019-05-15T07:23:09.056Z,64619.44
2019-05-15T07:25:35.381Z,64663.53
2019-05-15T07:28:01.613Z,64571.59
2019-05-15T07:30:28.760Z,64437.27
2019-05-15T07:32:55.120Z,64414.04
2019-05-15T07:35:24.234Z,64488.02
2019-05-15T07:37:49.530Z,64499.09
2019-05-15T07:40:19.214Z,64542.16
2019-05-15T07:42:44.747Z,64514.27
2019-05-15T07:45:11.908Z,64474.42
2019-05-15T07:47:38.854Z,64397.00
2019-05-15T07:50:09.284Z,64383.95
2019-05-15T07:52:39.189Z,64397.00
2019-05-15T07:55:08.707Z,64397.00
2019-05-15T07:57:35.074Z,64473.31
2019-05-15T08:00:01.347Z,64546.69
2019-05-15T08:02:28.503Z,64564.06
2019-05-15T08:04:54.799Z,64495.43
2019-05-15T08:07:21.097Z,64434.05
2019-05-15T08:09:48.646Z,64449.09
2019-05-15T08:12:15.096Z,64496.76
2019-05-15T08:14:41.336Z,64522.89
2019-05-15T08:17:08.661Z,64547.12
2019-05-15T08:19:35.055Z,64586.30
2019-05-15T08:22:01.422Z,64572.15
2019-05-15T08:24:29.775Z,64494.66
2019-05-15T08:26:57.985Z,64537.05
2019-05-15T08:29:24.099Z,64532.18
2019-05-15T08:31:50.382Z,64435.72
2019-05-15T08:34:19.584Z,64374.23
2019-05-15T08:36:48.275Z,64415.81
2019-05-15T08:39:14.449Z,64491.56
2019-05-15T08:41:40.694Z,64585.98
2019-05-15T08:44:08.712Z,64613.47
2019-05-15T08:46:35.122Z,64596.95
2019-05-15T08:49:02.483Z,64574.57
2019-05-15T08:51:28.769Z,64495.65
2019-05-15T08:53:55.078Z,64395.67
2019-05-15T08:56:21.448Z,64375.13
2019-05-15T08:58:48.662Z,64413.37
2019-05-15T09:01:15.363Z,64402.21
2019-05-15T09:03:43.737Z,64413.93
2019-05-15T09:06:10.014Z,64460.26
2019-05-15T09:08:38.761Z,64464.23
2019-05-15T09:11:04.438Z,64472.87
2019-05-15T09:13:30.720Z,64566.50
2019-05-15T09:15:58.923Z,64682.46
2019-05-15T09:18:25.516Z,64724.71
2019-05-15T09:20:51.868Z,64734.12
2019-05-15T09:23:19.425Z,64638.49
2019-05-15T09:25:48.938Z,64697.23
2019-05-15T09:28:19.306Z,64639.39
2019-05-15T09:30:48.129Z,64531.64
2019-05-15T09:33:14.044Z,64498.98
2019-05-15T09:35:40.302Z,64478.61
2019-05-15T09:38:08.647Z,64452.85
2019-05-15T09:40:45.025Z,64441.46
2019-05-15T09:43:02.851Z,64437.05
2019-05-15T09:45:29.084Z,64420.79
2019-05-15T09:47:55.376Z,64415.81
2019-05-15T09:50:21.612Z,64390.58
2019-05-15T09:52:50.074Z,64377.33
2019-05-15T09:55:18.212Z,64387.16
2019-05-15T09:57:44.525Z,64477.52
2019-05-15T10:00:11.464Z,64504.07
2019-05-15T10:02:39.501Z,64584.87
2019-05-15T10:05:10.952Z,64597.49
2019-05-15T10:07:34.674Z,64585.08
2019-05-15T10:10:01.523Z,64554.10
2019-05-15T10:12:34.586Z,64548.79
2019-05-15T10:14:59.048Z,64596.39
2019-05-15T10:17:24.460Z,64562.73
2019-05-15T10:19:50.716Z,64515.81
2019-05-15T10:22:18.689Z,64440.57
2019-05-15T10:24:45.122Z,64422.44
2019-05-15T10:27:11.369Z,64406.74
2019-05-15T10:29:38.798Z,64456.94
2019-05-15T10:32:05.166Z,64447.44
2019-05-15T10:34:31.428Z,64529.42
2019-05-15T10:36:58.950Z,64606.16
2019-05-15T10:39:25.405Z,64527.21
2019-05-15T10:41:51.655Z,64483.04
2019-05-15T10:44:18.287Z,64475.75
2019-05-15T10:46:48.346Z,64431.29
2019-05-15T10:49:14.805Z,64413.61
2019-05-15T10:51:42.881Z,64393.36
2019-05-15T10:54:09.113Z,64473.76
2019-05-15T10:56:35.353Z,64574.35
2019-05-15T10:59:01.590Z,64614.45
2019-05-15T11:01:27.930Z,64587.09
2019-05-15T11:03:54.164Z,64574.25
2019-05-15T11:06:20.407Z,64564.95
2019-05-15T11:08:51.107Z,64584.21
2019-05-15T11:11:14.795Z,64572.70
2019-05-15T11:13:41.086Z,64545.79
2019-05-15T11:16:08.878Z,64500.76
2019-05-15T11:18:35.194Z,64445.67
2019-05-15T11:21:01.487Z,64457.28
2019-05-15T11:23:29.310Z,64446.54
2019-05-15T11:25:57.980Z,64457.04
2019-05-15T11:28:23.867Z,64546.35
2019-05-15T11:30:50.112Z,64617.77
2019-05-15T11:33:18.863Z,64685.13
2019-05-15T11:35:59.245Z,64723.37
2019-05-15T11:38:12.677Z,64747.56
2019-05-15T11:40:39.094Z,64744.23
2019-05-15T11:43:05.360Z,64741.01
2019-05-15T11:45:31.720Z,64661.98
2019-05-15T11:48:00.830Z,64581.55
2019-05-15T11:50:29.106Z,64539.71
2019-05-15T11:52:54.280Z,64502.52
2019-05-15T11:55:20.501Z,64490.33
2019-05-15T11:57:51.541Z,64479.72
2019-05-15T12:00:26.741Z,64447.44
2019-05-15T12:02:50.487Z,64461.15
2019-05-15T12:05:18.228Z,64487.37
2019-05-15T12:07:47.779Z,64455.06
2019-05-15T12:10:15.061Z,64417.80
2019-05-15T12:12:41.342Z,64450.09
2019-05-15T12:15:08.647Z,64493.44
2019-05-15T12:17:35.036Z,64489.46
2019-05-15T12:20:06.220Z,64471.87
2019-05-15T12:22:29.754Z,64510.05
2019-05-15T12:24:56.065Z,64533.52
2019-05-15T12:27:22.333Z,64551.22
2019-05-15T12:29:49.298Z,64579.78
2019-05-15T12:32:26.456Z,64563.18
2019-05-15T12:34:43.782Z,64590.85
2019-05-15T12:37:10.177Z,64596.39
2019-05-15T12:39:40.624Z,64596.28
2019-05-15T13:01:49.777Z,64626.98
2019-05-15T13:04:16.016Z,64582.22
2019-05-15T13:06:49.499Z,64506.41
2019-05-15T13:09:10.386Z,64427.64
2019-05-15T13:11:37.790Z,64440.01
2019-05-15T13:14:04.158Z,64440.47
2019-05-15T13:16:30.398Z,64500.97
2019-05-15T13:18:58.649Z,64502.09
2019-05-15T13:21:24.759Z,64456.51
2019-05-15T13:23:50.983Z,64402.87
2019-05-15T13:26:23.693Z,64432.17
2019-05-15T13:28:45.378Z,64468.11
2019-05-15T13:31:11.627Z,64477.18
2019-05-15T13:33:38.636Z,64519.13
2019-05-15T13:36:05.099Z,64553.64
2019-05-15T13:38:31.319Z,64588.86
2019-05-15T13:40:58.959Z,64620.31
2019-05-15T13:43:25.488Z,64591.09
2019-05-15T13:45:51.707Z,64571.04
2019-05-15T13:48:19.998Z,64532.30
2019-05-15T13:50:48.155Z,64531.75
2019-05-15T13:53:14.243Z,64557.76
2019-05-15T13:55:42.824Z,64585.42
2019-05-15T13:58:09.009Z,64592.62
2019-05-15T14:00:35.370Z,64607.15
2019-05-15T14:03:01.597Z,64610.91
2019-05-15T14:05:29.635Z,64618.23
2019-05-15T14:07:58.162Z,64602.16
2019-05-15T14:10:24.096Z,64606.93
2019-05-15T14:12:50.334Z,64573.24
2019-05-15T14:15:16.678Z,64544.70
2019-05-15T14:17:42.920Z,64538.28
2019-05-15T14:20:09.433Z,64509.51
2019-05-15T14:22:35.789Z,64515.93
2019-05-15T14:25:02.746Z,64505.74
2019-05-15T14:27:29.131Z,64477.52
2019-05-15T14:29:58.161Z,64488.35
2019-05-15T14:32:35.515Z,64453.96
2019-05-15T14:34:52.931Z,64432.07
2019-05-15T14:37:19.168Z,64403.77
2019-05-15T14:39:45.448Z,64389.25
2019-05-15T14:42:11.684Z,64383.29
2019-05-15T14:44:38.729Z,64363.30
2019-05-15T14:47:05.356Z,64347.83
2019-05-15T14:49:34.748Z,64322.42
2019-05-15T14:52:08.450Z,64295.91
2019-05-15T14:54:28.961Z,64260.88
2019-05-15T14:56:55.334Z,64250.63
2019-05-15T14:59:21.587Z,64233.08
2019-05-15T15:01:48.740Z,64233.74
2019-05-15T15:04:15.382Z,64213.86
2019-05-15T15:06:41.610Z,64200.39
2019-05-15T15:09:08.387Z,64191.58
2019-05-15T15:11:34.782Z,64182.53
2019-05-15T15:14:01.035Z,64175.04
2019-05-15T15:16:29.145Z,64141.37
2019-05-15T15:18:55.402Z,64141.37
2019-05-15T15:21:22.648Z,64130.13
2019-05-15T15:23:49.184Z,64124.29
2019-05-15T15:26:15.448Z,64119.42
2019-05-15T15:28:41.683Z,64107.84
2019-05-15T15:31:07.931Z,64099.80
2019-05-15T15:33:34.167Z,64087.45
2019-05-15T15:36:00.408Z,64087.11
2019-05-15T15:38:38.081Z,64072.36
2019-05-15T15:40:54.783Z,64055.50
2019-05-15T15:43:21.211Z,64045.80
2019-05-15T15:45:48.382Z,64036.74
2019-05-15T15:48:14.702Z,64032.56
2019-05-15T15:50:40.943Z,64031.34
2019-05-15T15:53:08.986Z,64016.13
2019-05-15T15:55:38.251Z,64018.66
2019-05-15T15:58:03.598Z,64009.74
2019-05-15T16:00:29.850Z,63999.51
2019-05-15T16:02:56.280Z,63998.61
2019-05-15T16:05:22.518Z,63997.74
2019-05-15T16:07:48.771Z,63986.18
2019-05-15T16:10:15.197Z,63984.64
2019-05-15T16:12:41.444Z,63973.29
2019-05-15T16:15:08.947Z,63962.94
2019-05-15T16:17:38.099Z,63957.10
2019-05-15T16:20:04.753Z,63953.37
2019-05-15T16:22:31.199Z,63949.94
2019-05-15T16:24:58.759Z,63940.92
2019-05-15T16:27:25.588Z,63942.89
2019-05-15T16:29:51.825Z,63938.82
2019-05-15T16:32:21.537Z,63931.02
2019-05-15T16:34:47.922Z,63926.61
2019-05-15T16:37:14.266Z,63923.41
2019-05-15T16:39:40.907Z,63913.09
2019-05-15T16:42:07.178Z,63907.55
2019-05-15T16:44:33.421Z,63907.23
2019-05-15T16:46:59.674Z,63902.05
2019-05-15T16:49:28.294Z,63899.29
2019-05-15T16:51:54.052Z,63892.27
2019-05-15T16:54:20.809Z,63889.39
2019-05-15T16:56:48.800Z,63885.43
2019-05-15T16:59:15.222Z,63885.64
2019-05-15T17:01:41.574Z,63880.60
2019-05-15T17:04:08.415Z,63879.38
2019-05-15T17:06:34.857Z,63872.34
2019-05-15T17:09:01.109Z,63864.20
2019-05-15T17:11:28.879Z,63867.62
2019-05-15T17:13:55.395Z,63868.04
2019-05-15T17:16:21.622Z,63863.54
2019-05-15T17:18:48.644Z,63861.89
2019-05-15T17:21:15.303Z,63858.04
2019-05-15T17:23:41.558Z,63853.64
2019-05-15T17:26:08.797Z,63844.07
2019-05-15T17:28:35.385Z,63842.32
2019-05-15T17:31:01.613Z,63840.55
2019-05-15T17:33:28.955Z,63836.60
2019-05-15T17:35:55.349Z,63833.62
2019-05-15T17:38:21.597Z,63831.32
2019-05-15T17:40:48.468Z,63830.98
2019-05-15T17:43:14.917Z,63825.49
2019-05-15T17:45:41.173Z,63820.32
2019-05-15T17:48:08.897Z,63815.92
2019-05-15T17:50:48.253Z,63808.22
2019-05-15T17:53:03.713Z,63806.56
2019-05-15T17:55:29.952Z,63799.20
2019-05-15T17:57:58.336Z,63794.93
2019-05-15T18:00:24.331Z,63789.32
2019-05-15T18:02:50.826Z,63774.17
2019-05-15T18:05:18.813Z,63776.89
2019-05-15T18:07:45.278Z,63771.29
2019-05-15T18:10:12.238Z,63768.96
2019-05-15T18:12:39.015Z,63762.16
2019-05-15T18:15:05.813Z,63755.00
2019-05-15T18:17:32.044Z,63743.25
2019-05-15T18:19:58.300Z,63741.69
2019-05-15T18:22:24.829Z,63734.55
2019-05-15T18:24:51.205Z,63738.73
2019-05-15T18:27:18.564Z,63735.99
2019-05-15T18:29:45.274Z,63724.45
2019-05-15T18:32:12.291Z,63715.45
2019-05-15T18:34:39.615Z,63704.46
2019-05-15T18:37:08.411Z,63695.45
2019-05-15T18:39:34.211Z,63683.37
2019-05-15T18:42:00.463Z,63668.22
2019-05-15T18:44:28.332Z,63664.05
2019-05-15T18:46:54.750Z,63661.52
2019-05-15T18:49:20.983Z,63654.70
2019-05-15T18:51:47.915Z,63643.72
2019-05-15T18:54:14.394Z,63628.90
2019-05-15T18:56:40.625Z,63637.23
2019-05-15T18:59:08.450Z,63635.80
2019-05-15T19:01:34.903Z,63626.92
2019-05-15T19:04:01.458Z,63616.84
2019-05-15T19:06:29.255Z,63611.57
2019-05-15T19:08:55.684Z,63595.56
2019-05-15T19:11:21.949Z,63589.05
2019-05-15T19:13:48.267Z,63577.64
2019-05-15T19:16:14.508Z,63560.43
2019-05-15T19:18:40.751Z,63556.25
2019-05-15T19:21:07.950Z,63552.41
2019-05-15T19:23:34.532Z,63549.46
2019-05-15T19:26:01.165Z,63544.18
2019-05-15T19:28:28.658Z,63538.70
2019-05-15T19:30:55.161Z,63525.75
2019-05-15T19:33:33.406Z,63516.30
2019-05-15T19:35:49.543Z,63514.79
2019-05-15T19:38:15.828Z,63506.00
2019-05-15T19:40:43.976Z,63499.43
2019-05-15T19:43:10.221Z,63496.35
2019-05-15T19:45:38.332Z,63495.82
2019-05-15T19:48:04.606Z,63479.83
2019-05-15T19:50:30.859Z,63478.40
2019-05-15T19:52:59.105Z,63476.43
2019-05-15T19:55:25.244Z,63469.30
2019-05-15T19:57:52.704Z,63462.84
2019-05-15T20:00:19.062Z,63458.66
2019-05-15T20:02:45.411Z,63453.40
2019-05-15T20:05:11.648Z,63445.73
2019-05-15T20:07:39.087Z,63441.56
2019-05-15T20:10:07.328Z,63436.97
2019-05-15T20:12:33.567Z,63429.63
2019-05-15T20:14:59.818Z,63419.45
2019-05-15T20:17:27.736Z,63417.67
2019-05-15T20:19:54.108Z,63403.87
2019-05-15T20:22:20.339Z,63390.95
2019-05-15T20:24:46.579Z,63379.44
2019-05-15T20:27:12.829Z,63376.82
2019-05-15T20:29:39.074Z,63369.57
2019-05-15T20:32:05.665Z,63358.62
2019-05-15T20:34:31.924Z,63350.54
2019-05-15T20:36:58.713Z,63348.02
2019-05-15T20:39:25.299Z,63337.94
2019-05-15T20:41:51.533Z,63332.48
2019-05-15T20:44:18.247Z,63329.20
2019-05-15T20:46:44.709Z,63323.59
2019-05-15T20:49:10.936Z,63320.43
2019-05-15T20:51:38.943Z,63324.90
2019-05-15T20:54:05.334Z,63323.68
2019-05-15T20:56:31.614Z,63313.20
2019-05-15T20:59:00.019Z,63303.15
2019-05-15T21:01:28.579Z,63297.79
2019-05-15T21:03:54.380Z,63300.95
2019-05-15T21:06:20.618Z,63294.39
2019-05-15T21:08:48.803Z,63289.80
2019-05-15T21:11:15.021Z,63287.48
2019-05-15T21:13:41.288Z,63285.30
2019-05-15T21:16:08.284Z,63275.37
2019-05-15T21:18:34.681Z,63271.40
2019-05-15T21:21:00.960Z,63271.40
2019-05-15T21:23:28.524Z,63260.26
2019-05-15T21:25:54.941Z,63256.19
2019-05-15T21:28:21.168Z,63243.51
2019-05-15T21:30:49.215Z,63235.10
2019-05-15T21:33:17.647Z,63233.55
2019-05-15T21:35:43.744Z,63223.84
2019-05-15T21:38:10.081Z,63215.63
2019-05-15T21:40:38.459Z,63209.62
2019-05-15T21:43:04.475Z,63201.21
2019-05-15T21:45:30.701Z,63193.01
2019-05-15T21:48:00.441Z,63184.05
2019-05-15T21:50:25.105Z,63177.38
2019-05-15T21:52:51.355Z,63169.09
2019-05-15T21:55:18.478Z,63167.32
2019-05-15T21:57:45.229Z,63162.62
2019-05-15T22:00:34.640Z,63157.70
2019-05-15T22:03:01.093Z,63149.29
2019-05-15T22:05:27.821Z,63142.39
2019-05-15T22:07:54.060Z,63135.64
2019-05-15T22:10:20.185Z,63131.69
2019-05-15T22:12:48.322Z,63123.21
2019-05-15T22:15:18.972Z,63119.44
2019-05-15T22:17:49.017Z,63108.44
2019-05-15T22:20:14.463Z,63103.19
2019-05-15T22:22:40.710Z,63100.20
2019-05-15T22:25:10.884Z,63092.12
2019-05-15T22:27:35.488Z,63083.18
2019-05-15T22:30:01.743Z,63073.70
2019-05-15T22:32:29.187Z,63068.11
2019-05-15T22:35:07.071Z,63052.66
2019-05-15T22:37:23.846Z,63054.26
2019-05-15T22:39:50.101Z,63047.92
2019-05-15T22:42:18.282Z,63033.18
2019-05-15T22:44:44.474Z,63033.73
2019-05-15T22:47:10.705Z,63018.57
2019-05-15T22:49:38.038Z,63008.08
2019-05-15T22:52:04.496Z,63001.54
2019-05-15T22:54:30.738Z,62996.82
2019-05-15T22:56:57.690Z,62981.26
2019-05-15T22:59:24.129Z,62977.66
2019-05-15T23:01:50.358Z,62973.17
2019-05-15T23:04:18.117Z,62967.16
2019-05-15T23:06:44.452Z,62955.50
2019-05-15T23:09:10.703Z,62946.79
2019-05-15T23:11:39.293Z,62934.79
2019-05-15T23:14:05.085Z,62924.21
2019-05-15T23:16:31.313Z,62914.08
2019-05-15T23:18:58.803Z,62905.55
2019-05-15T23:21:25.287Z,62896.41
2019-05-15T23:23:51.518Z,62890.98
2019-05-15T23:26:17.769Z,62882.47
2019-05-15T23:28:44.013Z,62878.11
2019-05-15T23:31:10.268Z,62871.57
2019-05-15T23:33:38.583Z,62863.52
2019-05-15T23:36:04.649Z,62858.08
2019-05-15T23:38:30.881Z,62853.04
2019-05-15T23:40:58.953Z,62842.82
2019-05-15T23:43:25.257Z,62841.80
2019-05-15T23:45:51.526Z,62833.02
2019-05-15T23:48:17.743Z,62832.35
2019-05-15T23:50:43.987Z,62829.48
2019-05-15T23:53:10.229Z,62821.04
2019-05-15T23:55:36.469Z,62817.22
2019-05-15T23:58:02.689Z,62813.83
